sensor_id;sensor_type;location;lat;lon;timestamp;temperature;humidity
7117;DHT22;3600;48.568;7.870;2022-11-15T00:00:55;9.20;99.90
7117;DHT22;3600;48.568;7.870;2022-11-15T00:03:27;9.20;99.90
7117;DHT22;3600;48.568;7.870;2022-11-15T00:05:54;9.20;99.90
7117;DHT22;3600;48.568;7.870;2022-11-15T00:08:21;9.30;99.90
7117;DHT22;3600;48.568;7.870;2022-11-15T00:10:58;9.30;99.90
7117;DHT22;3600;48.568;7.870;2022-11-15T00:13:26;9.30;99.90
7117;DHT22;3600;48.568;7.870;2022-11-15T00:15:53;9.30;99.90
7117;DHT22;3600;48.568;7.870;2022-11-15T00:18:22;9.40;99.90
7117;DHT22;3600;48.568;7.870;2022-11-15T00:20:49;9.30;99.90
7117;DHT22;3600;48.568;7.870;2022-11-15T00:23:19;9.40;99.90
7117;DHT22;3600;48.568;7.870;2022-11-15T00:25:46;9.40;99.90
7117;DHT22;3600;48.568;7.870;2022-11-15T00:28:12;9.30;99.90
7117;DHT22;3600;48.568;7.870;2022-11-15T00:30:39;9.30;99.90
7117;DHT22;3600;48.568;7.870;2022-11-15T00:33:06;9.30;99.90
7117;DHT22;3600;48.568;7.870;2022-11-15T00:35:34;9.30;99.90
7117;DHT22;3600;48.568;7.870;2022-11-15T00:38:02;9.30;99.90
7117;DHT22;3600;48.568;7.870;2022-11-15T00:40:29;9.40;99.90
7117;DHT22;3600;48.568;7.870;2022-11-15T00:42:56;9.40;99.90
7117;DHT22;3600;48.568;7.870;2022-11-15T00:45:23;9.40;99.90
7117;DHT22;3600;48.568;7.870;2022-11-15T00:47:50;9.40;99.90
7117;DHT22;3600;48.568;7.870;2022-11-15T00:50:18;9.40;99.90
7117;DHT22;3600;48.568;7.870;2022-11-15T00:52:45;9.40;99.90
7117;DHT22;3600;48.568;7.870;2022-11-15T00:55:16;9.40;99.90
7117;DHT22;3600;48.568;7.870;2022-11-15T00:57:44;9.40;99.90
7117;DHT22;3600;48.568;7.870;2022-11-15T01:00:11;9.40;99.90
7117;DHT22;3600;48.568;7.870;2022-11-15T01:02:38;9.40;99.90
7117;DHT22;3600;48.568;7.870;2022-11-15T01:05:06;9.40;99.90
7117;DHT22;3600;48.568;7.870;2022-11-15T01:07:32;9.40;99.90
7117;DHT22;3600;48.568;7.870;2022-11-15T01:09:59;9.30;99.90
7117;DHT22;3600;48.568;7.870;2022-11-15T01:12:27;9.40;99.90
7117;DHT22;3600;48.568;7.870;2022-11-15T01:14:54;9.30;99.90
7117;DHT22;3600;48.568;7.870;2022-11-15T01:17:21;9.30;99.90
7117;DHT22;3600;48.568;7.870;2022-11-15T01:19:47;9.30;99.90
7117;DHT22;3600;48.568;7.870;2022-11-15T01:22:14;9.40;99.90
7117;DHT22;3600;48.568;7.870;2022-11-15T01:24:41;9.30;99.90
7117;DHT22;3600;48.568;7.870;2022-11-15T01:27:08;9.30;99.90
7117;DHT22;3600;48.568;7.870;2022-11-15T01:29:35;9.30;99.90
7117;DHT22;3600;48.568;7.870;2022-11-15T01:32:02;9.30;99.90
7117;DHT22;3600;48.568;7.870;2022-11-15T01:34:29;9.40;99.90
7117;DHT22;3600;48.568;7.870;2022-11-15T01:36:55;9.40;99.90
7117;DHT22;3600;48.568;7.870;2022-11-15T01:39:22;9.40;99.90
7117;DHT22;3600;48.568;7.870;2022-11-15T01:41:49;9.40;99.90
7117;DHT22;3600;48.568;7.870;2022-11-15T01:47:03;9.50;99.90
7117;DHT22;3600;48.568;7.870;2022-11-15T01:49:33;9.50;99.90
7117;DHT22;3600;48.568;7.870;2022-11-15T01:52:01;9.50;99.90
7117;DHT22;3600;48.568;7.870;2022-11-15T01:54:29;9.50;99.90
7117;DHT22;3600;48.568;7.870;2022-11-15T01:57:01;9.50;99.90
7117;DHT22;3600;48.568;7.870;2022-11-15T01:59:28;9.40;99.90
7117;DHT22;3600;48.568;7.870;2022-11-15T02:01:55;9.50;99.90
7117;DHT22;3600;48.568;7.870;2022-11-15T02:04:41;9.50;99.90
7117;DHT22;3600;48.568;7.870;2022-11-15T02:07:11;9.50;99.90
7117;DHT22;3600;48.568;7.870;2022-11-15T02:09:39;9.60;99.90
7117;DHT22;3600;48.568;7.870;2022-11-15T02:12:07;9.60;99.90
7117;DHT22;3600;48.568;7.870;2022-11-15T02:14:37;9.60;99.90
7117;DHT22;3600;48.568;7.870;2022-11-15T02:20:20;9.60;99.90
7117;DHT22;3600;48.568;7.870;2022-11-15T02:23:25;9.60;99.90
7117;DHT22;3600;48.568;7.870;2022-11-15T02:26:01;9.60;99.90
7117;DHT22;3600;48.568;7.870;2022-11-15T02:29:07;9.60;99.90
7117;DHT22;3600;48.568;7.870;2022-11-15T02:37:36;9.60;99.90
7117;DHT22;3600;48.568;7.870;2022-11-15T02:42:57;9.60;99.90
7117;DHT22;3600;48.568;7.870;2022-11-15T02:45:50;9.60;99.90
7117;DHT22;3600;48.568;7.870;2022-11-15T02:48:18;9.60;99.90
7117;DHT22;3600;48.568;7.870;2022-11-15T02:50:46;9.60;99.90
7117;DHT22;3600;48.568;7.870;2022-11-15T02:53:14;9.60;99.90
7117;DHT22;3600;48.568;7.870;2022-11-15T02:55:47;9.60;99.90
7117;DHT22;3600;48.568;7.870;2022-11-15T03:04:05;9.70;99.90
7117;DHT22;3600;48.568;7.870;2022-11-15T03:06:53;9.60;99.90
7117;DHT22;3600;48.568;7.870;2022-11-15T03:09:35;9.70;99.90
7117;DHT22;3600;48.568;7.870;2022-11-15T03:12:14;9.60;99.90
7117;DHT22;3600;48.568;7.870;2022-11-15T03:14:58;9.70;99.90
7117;DHT22;3600;48.568;7.870;2022-11-15T03:17:36;9.70;99.90
7117;DHT22;3600;48.568;7.870;2022-11-15T03:20:06;9.80;99.90
7117;DHT22;3600;48.568;7.870;2022-11-15T03:22:36;9.80;99.90
7117;DHT22;3600;48.568;7.870;2022-11-15T03:25:06;9.80;99.90
7117;DHT22;3600;48.568;7.870;2022-11-15T03:27:39;9.80;99.90
7117;DHT22;3600;48.568;7.870;2022-11-15T03:30:07;9.80;99.90
7117;DHT22;3600;48.568;7.870;2022-11-15T03:32:39;9.80;99.90
7117;DHT22;3600;48.568;7.870;2022-11-15T03:35:12;9.80;99.90
7117;DHT22;3600;48.568;7.870;2022-11-15T03:40:40;9.80;99.90
7117;DHT22;3600;48.568;7.870;2022-11-15T03:44:04;9.80;99.90
7117;DHT22;3600;48.568;7.870;2022-11-15T03:46:33;9.80;99.90
7117;DHT22;3600;48.568;7.870;2022-11-15T03:49:15;9.80;99.90
7117;DHT22;3600;48.568;7.870;2022-11-15T03:51:43;9.70;99.90
7117;DHT22;3600;48.568;7.870;2022-11-15T03:54:12;9.80;99.90
7117;DHT22;3600;48.568;7.870;2022-11-15T03:56:38;9.80;99.90
7117;DHT22;3600;48.568;7.870;2022-11-15T03:59:05;9.80;99.90
7117;DHT22;3600;48.568;7.870;2022-11-15T04:01:35;9.70;99.90
7117;DHT22;3600;48.568;7.870;2022-11-15T04:04:02;9.70;99.90
7117;DHT22;3600;48.568;7.870;2022-11-15T04:06:28;9.70;99.90
7117;DHT22;3600;48.568;7.870;2022-11-15T04:08:55;9.80;99.90
7117;DHT22;3600;48.568;7.870;2022-11-15T04:11:22;9.80;99.90
7117;DHT22;3600;48.568;7.870;2022-11-15T04:13:48;9.80;99.90
7117;DHT22;3600;48.568;7.870;2022-11-15T04:16:15;9.80;99.90
7117;DHT22;3600;48.568;7.870;2022-11-15T04:18:42;9.80;99.90
7117;DHT22;3600;48.568;7.870;2022-11-15T04:21:09;9.80;99.90
7117;DHT22;3600;48.568;7.870;2022-11-15T04:23:54;9.80;99.90
7117;DHT22;3600;48.568;7.870;2022-11-15T04:26:22;9.80;99.90
7117;DHT22;3600;48.568;7.870;2022-11-15T04:28:49;9.90;99.90
7117;DHT22;3600;48.568;7.870;2022-11-15T04:31:34;9.90;99.90
7117;DHT22;3600;48.568;7.870;2022-11-15T04:34:01;9.90;99.90
7117;DHT22;3600;48.568;7.870;2022-11-15T04:36:28;9.90;99.90
7117;DHT22;3600;48.568;7.870;2022-11-15T04:39:13;9.90;99.90
7117;DHT22;3600;48.568;7.870;2022-11-15T04:41:40;9.90;99.90
7117;DHT22;3600;48.568;7.870;2022-11-15T04:44:07;9.90;99.90
7117;DHT22;3600;48.568;7.870;2022-11-15T04:46:33;9.90;99.90
7117;DHT22;3600;48.568;7.870;2022-11-15T04:49:00;9.90;99.90
7117;DHT22;3600;48.568;7.870;2022-11-15T04:51:27;9.80;99.90
7117;DHT22;3600;48.568;7.870;2022-11-15T04:53:54;9.90;99.90
7117;DHT22;3600;48.568;7.870;2022-11-15T04:56:20;9.90;99.90
7117;DHT22;3600;48.568;7.870;2022-11-15T04:58:50;9.90;99.90
7117;DHT22;3600;48.568;7.870;2022-11-15T05:01:17;9.90;99.90
7117;DHT22;3600;48.568;7.870;2022-11-15T05:03:44;9.80;99.90
7117;DHT22;3600;48.568;7.870;2022-11-15T05:06:30;9.80;99.90
7117;DHT22;3600;48.568;7.870;2022-11-15T05:08:57;9.80;99.90
7117;DHT22;3600;48.568;7.870;2022-11-15T05:11:24;9.80;99.90
7117;DHT22;3600;48.568;7.870;2022-11-15T05:13:50;9.80;99.90
7117;DHT22;3600;48.568;7.870;2022-11-15T05:16:17;9.80;99.90
7117;DHT22;3600;48.568;7.870;2022-11-15T05:18:44;9.70;99.90
7117;DHT22;3600;48.568;7.870;2022-11-15T05:21:13;9.70;99.90
7117;DHT22;3600;48.568;7.870;2022-11-15T05:23:40;9.80;99.90
7117;DHT22;3600;48.568;7.870;2022-11-15T05:26:08;9.80;99.90
7117;DHT22;3600;48.568;7.870;2022-11-15T05:28:35;9.80;99.90
7117;DHT22;3600;48.568;7.870;2022-11-15T05:31:08;9.80;99.90
7117;DHT22;3600;48.568;7.870;2022-11-15T05:33:36;9.80;99.90
7117;DHT22;3600;48.568;7.870;2022-11-15T05:36:12;9.80;99.90
7117;DHT22;3600;48.568;7.870;2022-11-15T05:38:41;9.80;99.90
7117;DHT22;3600;48.568;7.870;2022-11-15T05:41:08;9.80;99.90
7117;DHT22;3600;48.568;7.870;2022-11-15T05:43:37;9.80;99.90
7117;DHT22;3600;48.568;7.870;2022-11-15T05:46:05;9.80;99.90
7117;DHT22;3600;48.568;7.870;2022-11-15T05:48:34;9.80;99.90
7117;DHT22;3600;48.568;7.870;2022-11-15T05:51:03;9.80;99.90
7117;DHT22;3600;48.568;7.870;2022-11-15T05:53:31;9.90;99.90
7117;DHT22;3600;48.568;7.870;2022-11-15T05:55:58;9.90;99.90
7117;DHT22;3600;48.568;7.870;2022-11-15T05:58:26;9.90;99.90
7117;DHT22;3600;48.568;7.870;2022-11-15T06:00:54;9.90;99.90
7117;DHT22;3600;48.568;7.870;2022-11-15T06:03:21;9.90;99.90
7117;DHT22;3600;48.568;7.870;2022-11-15T06:05:47;9.90;99.90
7117;DHT22;3600;48.568;7.870;2022-11-15T06:08:14;9.90;99.90
7117;DHT22;3600;48.568;7.870;2022-11-15T06:10:41;9.80;99.90
7117;DHT22;3600;48.568;7.870;2022-11-15T06:13:07;9.90;99.90
7117;DHT22;3600;48.568;7.870;2022-11-15T06:15:34;9.90;99.90
7117;DHT22;3600;48.568;7.870;2022-11-15T06:18:01;9.90;99.90
7117;DHT22;3600;48.568;7.870;2022-11-15T06:20:29;9.90;99.90
7117;DHT22;3600;48.568;7.870;2022-11-15T06:23:00;9.90;99.90
7117;DHT22;3600;48.568;7.870;2022-11-15T06:25:28;9.90;99.90
7117;DHT22;3600;48.568;7.870;2022-11-15T06:27:57;9.90;99.90
7117;DHT22;3600;48.568;7.870;2022-11-15T06:30:25;9.90;99.90
7117;DHT22;3600;48.568;7.870;2022-11-15T06:32:59;9.90;99.90
7117;DHT22;3600;48.568;7.870;2022-11-15T06:35:26;9.90;99.90
7117;DHT22;3600;48.568;7.870;2022-11-15T06:37:53;10.00;99.90
7117;DHT22;3600;48.568;7.870;2022-11-15T06:40:20;9.90;99.90
7117;DHT22;3600;48.568;7.870;2022-11-15T06:42:46;9.90;99.90
7117;DHT22;3600;48.568;7.870;2022-11-15T06:45:13;9.90;99.90
7117;DHT22;3600;48.568;7.870;2022-11-15T06:47:46;9.90;99.90
7117;DHT22;3600;48.568;7.870;2022-11-15T06:50:13;9.90;99.90
7117;DHT22;3600;48.568;7.870;2022-11-15T06:52:40;9.90;99.90
7117;DHT22;3600;48.568;7.870;2022-11-15T06:55:07;9.90;99.90
7117;DHT22;3600;48.568;7.870;2022-11-15T06:57:35;9.90;99.90
7117;DHT22;3600;48.568;7.870;2022-11-15T07:00:06;9.90;99.90
7117;DHT22;3600;48.568;7.870;2022-11-15T07:02:32;10.00;99.90
7117;DHT22;3600;48.568;7.870;2022-11-15T07:04:59;10.00;99.90
7117;DHT22;3600;48.568;7.870;2022-11-15T07:07:26;10.00;99.90
7117;DHT22;3600;48.568;7.870;2022-11-15T07:09:53;9.90;99.90
7117;DHT22;3600;48.568;7.870;2022-11-15T07:12:19;9.90;99.90
7117;DHT22;3600;48.568;7.870;2022-11-15T07:14:46;10.00;99.90
7117;DHT22;3600;48.568;7.870;2022-11-15T07:17:13;10.00;99.90
7117;DHT22;3600;48.568;7.870;2022-11-15T07:19:39;10.00;99.90
7117;DHT22;3600;48.568;7.870;2022-11-15T07:22:06;10.00;99.90
7117;DHT22;3600;48.568;7.870;2022-11-15T07:24:33;10.00;99.90
7117;DHT22;3600;48.568;7.870;2022-11-15T07:27:00;10.00;99.90
7117;DHT22;3600;48.568;7.870;2022-11-15T07:29:27;10.00;99.90
7117;DHT22;3600;48.568;7.870;2022-11-15T07:31:53;10.00;99.90
7117;DHT22;3600;48.568;7.870;2022-11-15T07:34:20;10.00;99.90
7117;DHT22;3600;48.568;7.870;2022-11-15T07:36:47;10.00;99.90
7117;DHT22;3600;48.568;7.870;2022-11-15T07:39:14;10.00;99.90
7117;DHT22;3600;48.568;7.870;2022-11-15T07:41:41;10.00;99.90
7117;DHT22;3600;48.568;7.870;2022-11-15T07:44:08;10.00;99.90
7117;DHT22;3600;48.568;7.870;2022-11-15T07:46:34;10.00;99.90
7117;DHT22;3600;48.568;7.870;2022-11-15T07:49:01;10.00;99.90
7117;DHT22;3600;48.568;7.870;2022-11-15T07:51:28;10.00;99.90
7117;DHT22;3600;48.568;7.870;2022-11-15T07:53:54;10.00;99.90
7117;DHT22;3600;48.568;7.870;2022-11-15T07:56:21;10.10;99.90
7117;DHT22;3600;48.568;7.870;2022-11-15T07:58:48;10.10;99.90
7117;DHT22;3600;48.568;7.870;2022-11-15T08:01:16;10.10;99.90
7117;DHT22;3600;48.568;7.870;2022-11-15T08:03:43;10.10;99.90
7117;DHT22;3600;48.568;7.870;2022-11-15T08:06:10;10.10;99.90
7117;DHT22;3600;48.568;7.870;2022-11-15T08:08:37;10.20;99.90
7117;DHT22;3600;48.568;7.870;2022-11-15T08:11:03;10.20;99.90
7117;DHT22;3600;48.568;7.870;2022-11-15T08:13:30;10.20;99.90
7117;DHT22;3600;48.568;7.870;2022-11-15T08:16:02;10.20;99.90
7117;DHT22;3600;48.568;7.870;2022-11-15T08:18:32;10.20;99.90
7117;DHT22;3600;48.568;7.870;2022-11-15T08:21:00;10.20;99.90
7117;DHT22;3600;48.568;7.870;2022-11-15T08:23:27;10.30;99.90
7117;DHT22;3600;48.568;7.870;2022-11-15T08:26:00;10.20;99.90
7117;DHT22;3600;48.568;7.870;2022-11-15T08:28:29;10.30;99.90
7117;DHT22;3600;48.568;7.870;2022-11-15T08:30:55;10.30;99.90
7117;DHT22;3600;48.568;7.870;2022-11-15T08:33:23;10.40;99.90
7117;DHT22;3600;48.568;7.870;2022-11-15T08:35:49;10.40;99.90
7117;DHT22;3600;48.568;7.870;2022-11-15T08:38:16;10.30;99.90
7117;DHT22;3600;48.568;7.870;2022-11-15T08:40:43;10.40;99.90
7117;DHT22;3600;48.568;7.870;2022-11-15T08:43:09;10.40;99.90
7117;DHT22;3600;48.568;7.870;2022-11-15T08:45:36;10.40;99.90
7117;DHT22;3600;48.568;7.870;2022-11-15T08:48:03;10.50;99.90
7117;DHT22;3600;48.568;7.870;2022-11-15T08:50:30;10.50;99.90
7117;DHT22;3600;48.568;7.870;2022-11-15T08:52:57;10.50;99.90
7117;DHT22;3600;48.568;7.870;2022-11-15T08:55:24;10.60;99.90
7117;DHT22;3600;48.568;7.870;2022-11-15T08:57:51;10.60;99.90
7117;DHT22;3600;48.568;7.870;2022-11-15T09:00:18;10.60;99.90
7117;DHT22;3600;48.568;7.870;2022-11-15T09:02:46;10.70;99.90
7117;DHT22;3600;48.568;7.870;2022-11-15T09:05:13;10.70;99.90
7117;DHT22;3600;48.568;7.870;2022-11-15T09:07:39;10.70;99.90
7117;DHT22;3600;48.568;7.870;2022-11-15T09:10:06;10.80;99.90
7117;DHT22;3600;48.568;7.870;2022-11-15T09:12:33;10.70;99.90
7117;DHT22;3600;48.568;7.870;2022-11-15T09:15:00;10.80;99.90
7117;DHT22;3600;48.568;7.870;2022-11-15T09:17:27;10.80;99.90
7117;DHT22;3600;48.568;7.870;2022-11-15T09:19:53;10.90;99.90
7117;DHT22;3600;48.568;7.870;2022-11-15T09:22:20;10.90;99.90
7117;DHT22;3600;48.568;7.870;2022-11-15T09:24:47;10.90;99.90
7117;DHT22;3600;48.568;7.870;2022-11-15T09:27:14;11.00;99.90
7117;DHT22;3600;48.568;7.870;2022-11-15T09:29:40;10.90;99.90
7117;DHT22;3600;48.568;7.870;2022-11-15T09:32:07;10.90;99.90
7117;DHT22;3600;48.568;7.870;2022-11-15T09:34:34;10.90;99.90
7117;DHT22;3600;48.568;7.870;2022-11-15T09:37:00;11.00;99.90
7117;DHT22;3600;48.568;7.870;2022-11-15T09:39:27;11.00;99.90
7117;DHT22;3600;48.568;7.870;2022-11-15T09:44:42;11.00;99.90
7117;DHT22;3600;48.568;7.870;2022-11-15T09:50:14;11.00;99.90
7117;DHT22;3600;48.568;7.870;2022-11-15T09:52:44;11.00;99.90
7117;DHT22;3600;48.568;7.870;2022-11-15T09:55:13;11.10;99.90
7117;DHT22;3600;48.568;7.870;2022-11-15T09:57:53;11.10;99.90
7117;DHT22;3600;48.568;7.870;2022-11-15T10:00:35;11.10;99.90
7117;DHT22;3600;48.568;7.870;2022-11-15T10:03:27;11.10;99.90
7117;DHT22;3600;48.568;7.870;2022-11-15T10:05:56;11.00;99.90
7117;DHT22;3600;48.568;7.870;2022-11-15T10:08:53;11.10;99.90
7117;DHT22;3600;48.568;7.870;2022-11-15T10:11:27;11.00;99.90
7117;DHT22;3600;48.568;7.870;2022-11-15T10:14:25;11.20;99.90
7117;DHT22;3600;48.568;7.870;2022-11-15T10:17:15;11.30;99.90
7117;DHT22;3600;48.568;7.870;2022-11-15T10:20:00;11.30;99.90
7117;DHT22;3600;48.568;7.870;2022-11-15T10:22:44;11.30;99.90
7117;DHT22;3600;48.568;7.870;2022-11-15T10:27:44;11.40;99.90
7117;DHT22;3600;48.568;7.870;2022-11-15T10:30:15;11.40;99.90
7117;DHT22;3600;48.568;7.870;2022-11-15T10:32:44;11.40;99.90
7117;DHT22;3600;48.568;7.870;2022-11-15T10:35:29;11.40;99.90
7117;DHT22;3600;48.568;7.870;2022-11-15T10:38:25;11.50;99.90
7117;DHT22;3600;48.568;7.870;2022-11-15T10:41:07;11.50;99.90
7117;DHT22;3600;48.568;7.870;2022-11-15T10:43:34;11.50;99.90
7117;DHT22;3600;48.568;7.870;2022-11-15T10:46:18;11.60;99.90
7117;DHT22;3600;48.568;7.870;2022-11-15T10:49:28;11.60;99.90
7117;DHT22;3600;48.568;7.870;2022-11-15T10:52:16;11.70;99.90
7117;DHT22;3600;48.568;7.870;2022-11-15T10:54:47;11.80;99.90
7117;DHT22;3600;48.568;7.870;2022-11-15T10:57:17;11.80;99.90
7117;DHT22;3600;48.568;7.870;2022-11-15T11:00:06;11.80;99.90
7117;DHT22;3600;48.568;7.870;2022-11-15T11:02:45;11.90;99.90
7117;DHT22;3600;48.568;7.870;2022-11-15T11:05:40;12.00;99.90
7117;DHT22;3600;48.568;7.870;2022-11-15T11:10:38;11.90;99.90
7117;DHT22;3600;48.568;7.870;2022-11-15T11:13:32;11.90;99.90
7117;DHT22;3600;48.568;7.870;2022-11-15T11:24:16;12.00;99.90
7117;DHT22;3600;48.568;7.870;2022-11-15T11:37:52;12.10;99.90
7117;DHT22;3600;48.568;7.870;2022-11-15T11:40:29;12.00;99.90
7117;DHT22;3600;48.568;7.870;2022-11-15T11:48:53;12.10;99.90
7117;DHT22;3600;48.568;7.870;2022-11-15T11:52:28;12.10;99.90
7117;DHT22;3600;48.568;7.870;2022-11-15T12:00:26;12.10;99.90
7117;DHT22;3600;48.568;7.870;2022-11-15T12:03:28;12.30;99.90
7117;DHT22;3600;48.568;7.870;2022-11-15T12:06:20;12.20;99.90
7117;DHT22;3600;48.568;7.870;2022-11-15T12:12:30;12.30;99.90
7117;DHT22;3600;48.568;7.870;2022-11-15T12:15:12;12.30;99.90
7117;DHT22;3600;48.568;7.870;2022-11-15T12:17:41;12.40;99.90
7117;DHT22;3600;48.568;7.870;2022-11-15T12:20:20;12.30;99.90
7117;DHT22;3600;48.568;7.870;2022-11-15T12:25:31;12.40;99.90
7117;DHT22;3600;48.568;7.870;2022-11-15T12:31:10;12.40;99.90
7117;DHT22;3600;48.568;7.870;2022-11-15T12:33:44;12.40;99.90
7117;DHT22;3600;48.568;7.870;2022-11-15T12:38:58;12.50;99.90
7117;DHT22;3600;48.568;7.870;2022-11-15T12:41:38;12.50;99.90
7117;DHT22;3600;48.568;7.870;2022-11-15T12:44:56;12.50;99.90
7117;DHT22;3600;48.568;7.870;2022-11-15T12:52:03;12.70;99.90
7117;DHT22;3600;48.568;7.870;2022-11-15T12:59:59;12.70;99.90
7117;DHT22;3600;48.568;7.870;2022-11-15T13:25:46;12.80;99.90
7117;DHT22;3600;48.568;7.870;2022-11-15T13:30:55;12.80;99.90
7117;DHT22;3600;48.568;7.870;2022-11-15T13:33:33;12.80;99.90
7117;DHT22;3600;48.568;7.870;2022-11-15T13:36:22;12.80;99.90
7117;DHT22;3600;48.568;7.870;2022-11-15T13:39:12;12.90;99.90
7117;DHT22;3600;48.568;7.870;2022-11-15T13:41:48;12.80;99.90
7117;DHT22;3600;48.568;7.870;2022-11-15T13:44:30;12.80;99.90
7117;DHT22;3600;48.568;7.870;2022-11-15T13:47:15;12.80;99.90
7117;DHT22;3600;48.568;7.870;2022-11-15T13:49:42;12.80;99.90
7117;DHT22;3600;48.568;7.870;2022-11-15T13:52:13;12.70;99.90
7117;DHT22;3600;48.568;7.870;2022-11-15T13:54:45;12.70;99.90
7117;DHT22;3600;48.568;7.870;2022-11-15T13:57:27;12.70;99.90
7117;DHT22;3600;48.568;7.870;2022-11-15T13:59:59;12.70;99.90
7117;DHT22;3600;48.568;7.870;2022-11-15T14:02:32;12.60;99.90
7117;DHT22;3600;48.568;7.870;2022-11-15T14:05:14;12.60;99.90
7117;DHT22;3600;48.568;7.870;2022-11-15T14:07:53;12.60;99.90
7117;DHT22;3600;48.568;7.870;2022-11-15T14:10:30;12.50;99.90
7117;DHT22;3600;48.568;7.870;2022-11-15T14:12:57;12.60;99.90
7117;DHT22;3600;48.568;7.870;2022-11-15T14:15:31;12.50;99.90
7117;DHT22;3600;48.568;7.870;2022-11-15T14:17:59;12.50;99.90
7117;DHT22;3600;48.568;7.870;2022-11-15T14:20:27;12.50;99.90
7117;DHT22;3600;48.568;7.870;2022-11-15T14:22:57;12.40;99.90
7117;DHT22;3600;48.568;7.870;2022-11-15T14:25:25;12.40;99.90
7117;DHT22;3600;48.568;7.870;2022-11-15T14:30:43;12.40;99.90
7117;DHT22;3600;48.568;7.870;2022-11-15T14:33:29;12.40;99.90
7117;DHT22;3600;48.568;7.870;2022-11-15T14:36:01;12.50;99.90
7117;DHT22;3600;48.568;7.870;2022-11-15T14:38:29;12.50;99.90
7117;DHT22;3600;48.568;7.870;2022-11-15T14:40:56;12.50;99.90
7117;DHT22;3600;48.568;7.870;2022-11-15T14:43:24;12.50;99.90
7117;DHT22;3600;48.568;7.870;2022-11-15T14:45:50;12.50;99.90
7117;DHT22;3600;48.568;7.870;2022-11-15T14:48:17;12.40;99.90
7117;DHT22;3600;48.568;7.870;2022-11-15T14:50:44;12.40;99.90
7117;DHT22;3600;48.568;7.870;2022-11-15T14:53:17;12.40;99.90
7117;DHT22;3600;48.568;7.870;2022-11-15T14:55:45;12.40;99.90
7117;DHT22;3600;48.568;7.870;2022-11-15T14:58:11;12.40;99.90
7117;DHT22;3600;48.568;7.870;2022-11-15T15:00:40;12.40;99.90
7117;DHT22;3600;48.568;7.870;2022-11-15T15:03:07;12.40;99.90
7117;DHT22;3600;48.568;7.870;2022-11-15T15:05:40;12.40;99.90
7117;DHT22;3600;48.568;7.870;2022-11-15T15:08:07;12.40;99.90
7117;DHT22;3600;48.568;7.870;2022-11-15T15:10:43;12.30;99.90
7117;DHT22;3600;48.568;7.870;2022-11-15T15:13:21;12.40;99.90
7117;DHT22;3600;48.568;7.870;2022-11-15T15:15:50;12.40;99.90
7117;DHT22;3600;48.568;7.870;2022-11-15T15:18:17;12.30;99.90
7117;DHT22;3600;48.568;7.870;2022-11-15T15:20:53;12.30;99.90
7117;DHT22;3600;48.568;7.870;2022-11-15T15:23:20;12.30;99.90
7117;DHT22;3600;48.568;7.870;2022-11-15T15:25:47;12.30;99.90
7117;DHT22;3600;48.568;7.870;2022-11-15T15:28:15;12.30;99.90
7117;DHT22;3600;48.568;7.870;2022-11-15T15:30:42;12.30;99.90
7117;DHT22;3600;48.568;7.870;2022-11-15T15:33:09;12.20;99.90
7117;DHT22;3600;48.568;7.870;2022-11-15T15:35:35;12.20;99.90
7117;DHT22;3600;48.568;7.870;2022-11-15T15:38:03;12.20;99.90
7117;DHT22;3600;48.568;7.870;2022-11-15T15:40:31;12.20;99.90
7117;DHT22;3600;48.568;7.870;2022-11-15T15:42:59;12.20;99.90
7117;DHT22;3600;48.568;7.870;2022-11-15T15:45:26;12.20;99.90
7117;DHT22;3600;48.568;7.870;2022-11-15T15:47:54;12.20;99.90
7117;DHT22;3600;48.568;7.870;2022-11-15T15:50:25;12.10;99.90
7117;DHT22;3600;48.568;7.870;2022-11-15T15:52:53;12.00;99.90
7117;DHT22;3600;48.568;7.870;2022-11-15T15:55:21;12.00;99.90
7117;DHT22;3600;48.568;7.870;2022-11-15T15:57:48;12.00;99.90
7117;DHT22;3600;48.568;7.870;2022-11-15T16:00:17;12.00;99.90
7117;DHT22;3600;48.568;7.870;2022-11-15T16:02:44;12.00;99.90
7117;DHT22;3600;48.568;7.870;2022-11-15T16:05:11;11.90;99.90
7117;DHT22;3600;48.568;7.870;2022-11-15T16:07:39;11.90;99.90
7117;DHT22;3600;48.568;7.870;2022-11-15T16:10:27;11.90;99.90
7117;DHT22;3600;48.568;7.870;2022-11-15T16:12:55;11.90;99.90
7117;DHT22;3600;48.568;7.870;2022-11-15T16:15:24;11.80;99.90
7117;DHT22;3600;48.568;7.870;2022-11-15T16:17:59;11.80;99.90
7117;DHT22;3600;48.568;7.870;2022-11-15T16:20:38;11.80;99.90
7117;DHT22;3600;48.568;7.870;2022-11-15T16:23:11;11.80;99.90
7117;DHT22;3600;48.568;7.870;2022-11-15T16:26:01;11.80;99.90
7117;DHT22;3600;48.568;7.870;2022-11-15T16:28:31;11.80;99.90
7117;DHT22;3600;48.568;7.870;2022-11-15T16:31:17;11.80;99.90
7117;DHT22;3600;48.568;7.870;2022-11-15T16:33:46;11.80;99.90
7117;DHT22;3600;48.568;7.870;2022-11-15T16:36:23;11.70;99.90
7117;DHT22;3600;48.568;7.870;2022-11-15T16:38:56;11.80;99.90
7117;DHT22;3600;48.568;7.870;2022-11-15T16:41:23;11.80;99.90
7117;DHT22;3600;48.568;7.870;2022-11-15T16:43:49;11.80;99.90
7117;DHT22;3600;48.568;7.870;2022-11-15T16:46:19;11.80;99.90
7117;DHT22;3600;48.568;7.870;2022-11-15T16:48:47;11.80;99.90
7117;DHT22;3600;48.568;7.870;2022-11-15T16:51:14;11.70;99.90
7117;DHT22;3600;48.568;7.870;2022-11-15T16:53:42;11.70;99.90
7117;DHT22;3600;48.568;7.870;2022-11-15T16:58:48;11.70;99.90
7117;DHT22;3600;48.568;7.870;2022-11-15T17:01:38;11.70;99.90
7117;DHT22;3600;48.568;7.870;2022-11-15T17:04:12;11.70;99.90
7117;DHT22;3600;48.568;7.870;2022-11-15T17:06:41;11.70;99.90
7117;DHT22;3600;48.568;7.870;2022-11-15T17:09:19;11.70;99.90
7117;DHT22;3600;48.568;7.870;2022-11-15T17:11:46;11.70;99.90
7117;DHT22;3600;48.568;7.870;2022-11-15T17:14:12;11.70;99.90
7117;DHT22;3600;48.568;7.870;2022-11-15T17:16:40;11.70;99.90
7117;DHT22;3600;48.568;7.870;2022-11-15T17:19:16;11.60;99.90
7117;DHT22;3600;48.568;7.870;2022-11-15T17:21:44;11.60;99.90
7117;DHT22;3600;48.568;7.870;2022-11-15T17:24:11;11.60;99.90
7117;DHT22;3600;48.568;7.870;2022-11-15T17:26:38;11.60;99.90
7117;DHT22;3600;48.568;7.870;2022-11-15T17:29:06;11.60;99.90
7117;DHT22;3600;48.568;7.870;2022-11-15T17:31:36;11.50;99.90
7117;DHT22;3600;48.568;7.870;2022-11-15T17:34:04;11.60;99.90
7117;DHT22;3600;48.568;7.870;2022-11-15T17:36:32;11.60;99.90
7117;DHT22;3600;48.568;7.870;2022-11-15T17:38:59;11.60;99.90
7117;DHT22;3600;48.568;7.870;2022-11-15T17:41:26;11.60;99.90
7117;DHT22;3600;48.568;7.870;2022-11-15T17:43:57;11.60;99.90
7117;DHT22;3600;48.568;7.870;2022-11-15T17:46:26;11.60;99.90
7117;DHT22;3600;48.568;7.870;2022-11-15T17:48:54;11.60;99.90
7117;DHT22;3600;48.568;7.870;2022-11-15T17:51:21;11.60;99.90
7117;DHT22;3600;48.568;7.870;2022-11-15T17:53:49;11.50;99.90
7117;DHT22;3600;48.568;7.870;2022-11-15T17:56:18;11.50;99.90
7117;DHT22;3600;48.568;7.870;2022-11-15T17:58:53;11.50;99.90
7117;DHT22;3600;48.568;7.870;2022-11-15T18:03:49;11.50;99.90
7117;DHT22;3600;48.568;7.870;2022-11-15T18:06:17;11.60;99.90
7117;DHT22;3600;48.568;7.870;2022-11-15T18:08:45;11.50;99.90
7117;DHT22;3600;48.568;7.870;2022-11-15T18:11:15;11.50;99.90
7117;DHT22;3600;48.568;7.870;2022-11-15T18:13:44;11.50;99.90
7117;DHT22;3600;48.568;7.870;2022-11-15T18:16:20;11.40;99.90
7117;DHT22;3600;48.568;7.870;2022-11-15T18:18:47;11.30;99.90
7117;DHT22;3600;48.568;7.870;2022-11-15T18:21:16;11.30;99.90
7117;DHT22;3600;48.568;7.870;2022-11-15T18:23:45;11.30;99.90
7117;DHT22;3600;48.568;7.870;2022-11-15T18:26:14;11.40;99.90
7117;DHT22;3600;48.568;7.870;2022-11-15T18:28:46;11.40;99.90
7117;DHT22;3600;48.568;7.870;2022-11-15T18:31:17;11.40;99.90
7117;DHT22;3600;48.568;7.870;2022-11-15T18:33:44;11.40;99.90